sensor_id;sensor_type;location;lat;lon;timestamp;temperature;humidity
43810;DHT22;29440;48.208;11.162;2023-03-23T00:02:29;9.90;99.90
43810;DHT22;29440;48.208;11.162;2023-03-23T00:04:57;9.90;99.90
43810;DHT22;29440;48.208;11.162;2023-03-23T00:07:25;9.90;99.90
43810;DHT22;29440;48.208;11.162;2023-03-23T00:09:54;9.90;99.90
43810;DHT22;29440;48.208;11.162;2023-03-23T00:12:21;9.90;99.90
43810;DHT22;29440;48.208;11.162;2023-03-23T00:14:57;9.90;99.90
43810;DHT22;29440;48.208;11.162;2023-03-23T00:17:22;9.90;99.90
43810;DHT22;29440;48.208;11.162;2023-03-23T00:19:48;9.90;99.90
43810;DHT22;29440;48.208;11.162;2023-03-23T00:22:16;9.90;99.90
43810;DHT22;29440;48.208;11.162;2023-03-23T00:24:46;9.90;99.90
43810;DHT22;29440;48.208;11.162;2023-03-23T00:27:13;9.90;99.90
43810;DHT22;29440;48.208;11.162;2023-03-23T00:29:40;9.90;99.90
43810;DHT22;29440;48.208;11.162;2023-03-23T00:32:06;9.90;99.90
43810;DHT22;29440;48.208;11.162;2023-03-23T00:34:32;9.90;99.90
43810;DHT22;29440;48.208;11.162;2023-03-23T00:36:59;9.90;99.90
43810;DHT22;29440;48.208;11.162;2023-03-23T00:39:26;9.90;99.90
43810;DHT22;29440;48.208;11.162;2023-03-23T00:41:53;9.90;99.90
43810;DHT22;29440;48.208;11.162;2023-03-23T00:44:20;9.90;99.90
43810;DHT22;29440;48.208;11.162;2023-03-23T00:46:49;9.90;99.90
43810;DHT22;29440;48.208;11.162;2023-03-23T00:49:19;9.90;99.90
43810;DHT22;29440;48.208;11.162;2023-03-23T00:51:45;9.90;99.90
43810;DHT22;29440;48.208;11.162;2023-03-23T00:54:11;9.80;99.90
43810;DHT22;29440;48.208;11.162;2023-03-23T00:56:38;9.80;99.90
43810;DHT22;29440;48.208;11.162;2023-03-23T00:59:06;9.70;99.90
43810;DHT22;29440;48.208;11.162;2023-03-23T01:01:33;9.70;99.90
43810;DHT22;29440;48.208;11.162;2023-03-23T01:03:59;9.60;99.90
43810;DHT22;29440;48.208;11.162;2023-03-23T01:06:33;9.60;99.90
43810;DHT22;29440;48.208;11.162;2023-03-23T01:09:01;9.50;99.90
43810;DHT22;29440;48.208;11.162;2023-03-23T01:11:28;9.50;99.90
43810;DHT22;29440;48.208;11.162;2023-03-23T01:13:54;9.40;99.90
43810;DHT22;29440;48.208;11.162;2023-03-23T01:16:21;9.40;99.90
43810;DHT22;29440;48.208;11.162;2023-03-23T01:18:46;9.40;99.90
43810;DHT22;29440;48.208;11.162;2023-03-23T01:21:16;9.30;99.90
43810;DHT22;29440;48.208;11.162;2023-03-23T01:23:43;9.30;99.90
43810;DHT22;29440;48.208;11.162;2023-03-23T01:26:14;9.20;99.90
43810;DHT22;29440;48.208;11.162;2023-03-23T01:28:39;9.20;99.90
43810;DHT22;29440;48.208;11.162;2023-03-23T01:31:11;9.20;99.90
43810;DHT22;29440;48.208;11.162;2023-03-23T01:33:38;9.20;99.90
43810;DHT22;29440;48.208;11.162;2023-03-23T01:36:15;9.20;99.90
43810;DHT22;29440;48.208;11.162;2023-03-23T01:38:46;9.10;99.90
43810;DHT22;29440;48.208;11.162;2023-03-23T01:41:13;9.10;99.90
43810;DHT22;29440;48.208;11.162;2023-03-23T01:44:02;9.10;99.90
43810;DHT22;29440;48.208;11.162;2023-03-23T01:46:31;9.10;99.90
43810;DHT22;29440;48.208;11.162;2023-03-23T01:48:59;9.00;99.90
43810;DHT22;29440;48.208;11.162;2023-03-23T01:51:31;9.10;99.90
43810;DHT22;29440;48.208;11.162;2023-03-23T01:54:01;9.10;99.90
43810;DHT22;29440;48.208;11.162;2023-03-23T01:56:36;9.10;99.90
43810;DHT22;29440;48.208;11.162;2023-03-23T01:59:07;9.00;99.90
43810;DHT22;29440;48.208;11.162;2023-03-23T02:01:34;9.10;99.90
43810;DHT22;29440;48.208;11.162;2023-03-23T02:04:04;9.00;99.90
43810;DHT22;29440;48.208;11.162;2023-03-23T02:06:31;9.00;99.90
43810;DHT22;29440;48.208;11.162;2023-03-23T02:08:57;9.00;99.90
43810;DHT22;29440;48.208;11.162;2023-03-23T02:11:23;9.00;99.90
43810;DHT22;29440;48.208;11.162;2023-03-23T02:13:49;9.00;99.90
43810;DHT22;29440;48.208;11.162;2023-03-23T02:24:20;8.80;99.90
43810;DHT22;29440;48.208;11.162;2023-03-23T02:27:20;8.80;99.90
43810;DHT22;29440;48.208;11.162;2023-03-23T02:35:24;8.80;99.90
43810;DHT22;29440;48.208;11.162;2023-03-23T02:38:00;8.80;99.90
43810;DHT22;29440;48.208;11.162;2023-03-23T02:40:35;8.80;99.90
43810;DHT22;29440;48.208;11.162;2023-03-23T02:43:03;8.90;99.90
43810;DHT22;29440;48.208;11.162;2023-03-23T02:45:33;8.90;99.90
43810;DHT22;29440;48.208;11.162;2023-03-23T02:48:02;8.90;99.90
43810;DHT22;29440;48.208;11.162;2023-03-23T02:50:30;8.90;99.90
43810;DHT22;29440;48.208;11.162;2023-03-23T02:52:57;8.90;99.90
43810;DHT22;29440;48.208;11.162;2023-03-23T02:55:25;9.00;99.90
43810;DHT22;29440;48.208;11.162;2023-03-23T02:57:54;9.00;99.90
43810;DHT22;29440;48.208;11.162;2023-03-23T03:00:21;9.00;99.90
43810;DHT22;29440;48.208;11.162;2023-03-23T03:02:52;9.00;99.90
43810;DHT22;29440;48.208;11.162;2023-03-23T03:14:04;9.10;99.90
43810;DHT22;29440;48.208;11.162;2023-03-23T03:16:53;9.10;99.90
43810;DHT22;29440;48.208;11.162;2023-03-23T03:19:27;9.10;99.90
43810;DHT22;29440;48.208;11.162;2023-03-23T03:21:56;9.10;99.90
43810;DHT22;29440;48.208;11.162;2023-03-23T03:24:24;9.10;99.90
43810;DHT22;29440;48.208;11.162;2023-03-23T03:26:52;9.10;99.90
43810;DHT22;29440;48.208;11.162;2023-03-23T03:29:22;9.20;99.90
43810;DHT22;29440;48.208;11.162;2023-03-23T03:31:50;9.20;99.90
43810;DHT22;29440;48.208;11.162;2023-03-23T03:34:17;9.20;99.90
43810;DHT22;29440;48.208;11.162;2023-03-23T03:36:44;9.20;99.90
43810;DHT22;29440;48.208;11.162;2023-03-23T03:39:12;9.20;99.90
43810;DHT22;29440;48.208;11.162;2023-03-23T03:41:40;9.20;99.90
43810;DHT22;29440;48.208;11.162;2023-03-23T03:44:07;9.20;99.90
43810;DHT22;29440;48.208;11.162;2023-03-23T03:46:33;9.20;99.90
43810;DHT22;29440;48.208;11.162;2023-03-23T03:49:00;9.20;99.90
43810;DHT22;29440;48.208;11.162;2023-03-23T03:51:27;9.20;99.90
43810;DHT22;29440;48.208;11.162;2023-03-23T03:53:54;9.20;99.90
43810;DHT22;29440;48.208;11.162;2023-03-23T03:56:19;9.30;99.90
43810;DHT22;29440;48.208;11.162;2023-03-23T03:58:47;9.30;99.90
43810;DHT22;29440;48.208;11.162;2023-03-23T04:01:14;9.30;99.90
43810;DHT22;29440;48.208;11.162;2023-03-23T04:03:40;9.30;99.90
43810;DHT22;29440;48.208;11.162;2023-03-23T04:06:06;9.30;99.90
43810;DHT22;29440;48.208;11.162;2023-03-23T04:08:33;9.30;99.90
43810;DHT22;29440;48.208;11.162;2023-03-23T04:10:59;9.40;99.90
43810;DHT22;29440;48.208;11.162;2023-03-23T04:13:24;9.40;99.90
43810;DHT22;29440;48.208;11.162;2023-03-23T04:15:51;9.40;99.90
43810;DHT22;29440;48.208;11.162;2023-03-23T04:18:17;9.40;99.90
43810;DHT22;29440;48.208;11.162;2023-03-23T04:20:47;9.40;99.90
43810;DHT22;29440;48.208;11.162;2023-03-23T04:23:15;9.40;99.90
43810;DHT22;29440;48.208;11.162;2023-03-23T04:25:46;9.30;99.90
43810;DHT22;29440;48.208;11.162;2023-03-23T04:28:12;9.30;99.90
43810;DHT22;29440;48.208;11.162;2023-03-23T04:30:38;9.30;99.90
43810;DHT22;29440;48.208;11.162;2023-03-23T04:33:08;9.30;99.90
43810;DHT22;29440;48.208;11.162;2023-03-23T04:35:34;9.30;99.90
43810;DHT22;29440;48.208;11.162;2023-03-23T04:38:02;9.20;99.90
43810;DHT22;29440;48.208;11.162;2023-03-23T04:40:27;9.30;99.90
43810;DHT22;29440;48.208;11.162;2023-03-23T04:42:53;9.20;99.90
43810;DHT22;29440;48.208;11.162;2023-03-23T04:45:23;9.20;99.90
43810;DHT22;29440;48.208;11.162;2023-03-23T04:47:49;9.20;99.90
43810;DHT22;29440;48.208;11.162;2023-03-23T04:50:21;9.20;99.90
43810;DHT22;29440;48.208;11.162;2023-03-23T04:52:49;9.20;99.90
43810;DHT22;29440;48.208;11.162;2023-03-23T04:55:17;9.20;99.90
43810;DHT22;29440;48.208;11.162;2023-03-23T04:57:43;9.20;99.90
43810;DHT22;29440;48.208;11.162;2023-03-23T05:00:10;9.20;99.90
43810;DHT22;29440;48.208;11.162;2023-03-23T05:02:45;9.30;99.90
43810;DHT22;29440;48.208;11.162;2023-03-23T05:05:12;9.20;99.90
43810;DHT22;29440;48.208;11.162;2023-03-23T05:07:39;9.30;99.90
43810;DHT22;29440;48.208;11.162;2023-03-23T05:10:06;9.30;99.90
43810;DHT22;29440;48.208;11.162;2023-03-23T05:12:33;9.30;99.90
43810;DHT22;29440;48.208;11.162;2023-03-23T05:14:59;9.30;99.90
43810;DHT22;29440;48.208;11.162;2023-03-23T05:17:25;9.30;99.90
43810;DHT22;29440;48.208;11.162;2023-03-23T05:19:51;9.40;99.90
43810;DHT22;29440;48.208;11.162;2023-03-23T05:22:17;9.30;99.90
43810;DHT22;29440;48.208;11.162;2023-03-23T05:24:43;9.40;99.90
43810;DHT22;29440;48.208;11.162;2023-03-23T05:27:10;9.40;99.90
43810;DHT22;29440;48.208;11.162;2023-03-23T05:29:36;9.40;99.90
43810;DHT22;29440;48.208;11.162;2023-03-23T05:32:03;9.40;99.90
43810;DHT22;29440;48.208;11.162;2023-03-23T05:34:31;9.40;99.90
43810;DHT22;29440;48.208;11.162;2023-03-23T05:36:58;9.40;99.90
43810;DHT22;29440;48.208;11.162;2023-03-23T05:39:24;9.50;99.90
43810;DHT22;29440;48.208;11.162;2023-03-23T05:41:50;9.50;99.90
43810;DHT22;29440;48.208;11.162;2023-03-23T05:44:15;9.50;99.90
43810;DHT22;29440;48.208;11.162;2023-03-23T05:46:41;9.50;99.90
43810;DHT22;29440;48.208;11.162;2023-03-23T05:49:07;9.50;99.90
43810;DHT22;29440;48.208;11.162;2023-03-23T05:51:33;9.50;99.90
43810;DHT22;29440;48.208;11.162;2023-03-23T05:53:58;9.50;99.90
43810;DHT22;29440;48.208;11.162;2023-03-23T05:56:24;9.50;99.90
43810;DHT22;29440;48.208;11.162;2023-03-23T05:58:50;9.50;99.90
43810;DHT22;29440;48.208;11.162;2023-03-23T06:01:15;9.50;99.90
43810;DHT22;29440;48.208;11.162;2023-03-23T06:03:41;9.50;99.90
43810;DHT22;29440;48.208;11.162;2023-03-23T06:06:10;9.50;99.90
43810;DHT22;29440;48.208;11.162;2023-03-23T06:08:37;9.50;99.90
43810;DHT22;29440;48.208;11.162;2023-03-23T06:11:03;9.50;99.90
43810;DHT22;29440;48.208;11.162;2023-03-23T06:13:29;9.50;99.90
43810;DHT22;29440;48.208;11.162;2023-03-23T06:15:55;9.50;99.90
43810;DHT22;29440;48.208;11.162;2023-03-23T06:18:23;9.50;99.90
43810;DHT22;29440;48.208;11.162;2023-03-23T06:20:49;9.60;99.90
43810;DHT22;29440;48.208;11.162;2023-03-23T06:23:14;9.60;99.90
43810;DHT22;29440;48.208;11.162;2023-03-23T06:25:40;9.60;99.90
43810;DHT22;29440;48.208;11.162;2023-03-23T06:28:05;9.70;99.90
43810;DHT22;29440;48.208;11.162;2023-03-23T06:30:31;9.70;99.90
43810;DHT22;29440;48.208;11.162;2023-03-23T06:32:57;9.80;99.90
43810;DHT22;29440;48.208;11.162;2023-03-23T06:35:23;9.80;99.90
43810;DHT22;29440;48.208;11.162;2023-03-23T06:37:49;9.90;99.90
43810;DHT22;29440;48.208;11.162;2023-03-23T06:40:14;9.90;99.90
43810;DHT22;29440;48.208;11.162;2023-03-23T06:42:40;10.00;99.90
43810;DHT22;29440;48.208;11.162;2023-03-23T06:45:06;10.00;99.90
43810;DHT22;29440;48.208;11.162;2023-03-23T06:47:33;10.10;99.90
43810;DHT22;29440;48.208;11.162;2023-03-23T06:49:58;10.20;99.90
43810;DHT22;29440;48.208;11.162;2023-03-23T06:52:25;10.20;99.90
43810;DHT22;29440;48.208;11.162;2023-03-23T06:54:52;10.30;99.90
43810;DHT22;29440;48.208;11.162;2023-03-23T06:57:18;10.40;99.90
43810;DHT22;29440;48.208;11.162;2023-03-23T06:59:44;10.50;99.90
43810;DHT22;29440;48.208;11.162;2023-03-23T07:02:14;10.50;99.90
43810;DHT22;29440;48.208;11.162;2023-03-23T07:04:40;10.60;99.90
43810;DHT22;29440;48.208;11.162;2023-03-23T07:07:08;10.60;99.90
43810;DHT22;29440;48.208;11.162;2023-03-23T07:09:34;10.70;99.90
43810;DHT22;29440;48.208;11.162;2023-03-23T07:11:59;10.70;99.90
43810;DHT22;29440;48.208;11.162;2023-03-23T07:14:25;10.80;99.90
43810;DHT22;29440;48.208;11.162;2023-03-23T07:16:51;10.90;99.90
43810;DHT22;29440;48.208;11.162;2023-03-23T07:19:25;11.10;99.90
43810;DHT22;29440;48.208;11.162;2023-03-23T07:21:51;11.00;99.90
43810;DHT22;29440;48.208;11.162;2023-03-23T07:24:17;11.10;99.90
43810;DHT22;29440;48.208;11.162;2023-03-23T07:26:43;11.20;99.90
43810;DHT22;29440;48.208;11.162;2023-03-23T07:29:09;11.30;99.90
43810;DHT22;29440;48.208;11.162;2023-03-23T07:31:35;11.40;99.90
43810;DHT22;29440;48.208;11.162;2023-03-23T07:34:01;11.50;99.90
43810;DHT22;29440;48.208;11.162;2023-03-23T07:36:28;11.60;99.90
43810;DHT22;29440;48.208;11.162;2023-03-23T07:38:54;11.70;99.90
43810;DHT22;29440;48.208;11.162;2023-03-23T07:41:20;11.90;99.90
43810;DHT22;29440;48.208;11.162;2023-03-23T07:43:46;12.10;99.90
43810;DHT22;29440;48.208;11.162;2023-03-23T07:46:12;12.20;99.90
43810;DHT22;29440;48.208;11.162;2023-03-23T07:48:38;12.40;99.90
43810;DHT22;29440;48.208;11.162;2023-03-23T07:51:05;12.50;99.90
43810;DHT22;29440;48.208;11.162;2023-03-23T07:53:31;12.60;99.90
43810;DHT22;29440;48.208;11.162;2023-03-23T07:55:57;12.60;99.90
43810;DHT22;29440;48.208;11.162;2023-03-23T07:58:23;12.70;99.90
43810;DHT22;29440;48.208;11.162;2023-03-23T08:00:49;12.70;99.90
43810;DHT22;29440;48.208;11.162;2023-03-23T08:03:15;12.70;99.90
43810;DHT22;29440;48.208;11.162;2023-03-23T08:05:41;12.80;99.90
43810;DHT22;29440;48.208;11.162;2023-03-23T08:08:09;12.80;99.90
43810;DHT22;29440;48.208;11.162;2023-03-23T08:10:35;12.80;99.90
43810;DHT22;29440;48.208;11.162;2023-03-23T08:13:01;12.90;99.90
43810;DHT22;29440;48.208;11.162;2023-03-23T08:15:27;12.90;99.90
43810;DHT22;29440;48.208;11.162;2023-03-23T08:17:54;12.90;99.90
43810;DHT22;29440;48.208;11.162;2023-03-23T08:20:20;12.90;99.90
43810;DHT22;29440;48.208;11.162;2023-03-23T08:22:50;12.90;99.90
43810;DHT22;29440;48.208;11.162;2023-03-23T08:25:18;13.00;99.90
43810;DHT22;29440;48.208;11.162;2023-03-23T08:27:49;13.00;99.90
43810;DHT22;29440;48.208;11.162;2023-03-23T08:30:17;13.00;99.90
43810;DHT22;29440;48.208;11.162;2023-03-23T08:32:45;13.00;99.90
43810;DHT22;29440;48.208;11.162;2023-03-23T08:35:11;13.10;99.90
43810;DHT22;29440;48.208;11.162;2023-03-23T08:37:37;13.20;99.90
43810;DHT22;29440;48.208;11.162;2023-03-23T08:40:04;13.20;99.90
43810;DHT22;29440;48.208;11.162;2023-03-23T08:42:34;13.30;99.90
43810;DHT22;29440;48.208;11.162;2023-03-23T08:45:00;13.40;99.90
43810;DHT22;29440;48.208;11.162;2023-03-23T08:47:26;13.50;99.90
43810;DHT22;29440;48.208;11.162;2023-03-23T08:49:52;13.70;99.90
43810;DHT22;29440;48.208;11.162;2023-03-23T08:52:19;13.80;99.90
43810;DHT22;29440;48.208;11.162;2023-03-23T08:54:45;13.90;99.90
43810;DHT22;29440;48.208;11.162;2023-03-23T08:57:13;14.00;99.90
43810;DHT22;29440;48.208;11.162;2023-03-23T08:59:40;14.20;99.90
43810;DHT22;29440;48.208;11.162;2023-03-23T09:02:08;14.40;99.90
43810;DHT22;29440;48.208;11.162;2023-03-23T09:04:34;14.40;99.90
43810;DHT22;29440;48.208;11.162;2023-03-23T09:07:00;14.50;99.90
43810;DHT22;29440;48.208;11.162;2023-03-23T09:09:26;14.70;99.90
43810;DHT22;29440;48.208;11.162;2023-03-23T09:11:53;14.60;99.90
43810;DHT22;29440;48.208;11.162;2023-03-23T09:14:18;14.70;99.90
43810;DHT22;29440;48.208;11.162;2023-03-23T09:16:44;14.70;99.90
43810;DHT22;29440;48.208;11.162;2023-03-23T09:19:10;14.80;99.90
43810;DHT22;29440;48.208;11.162;2023-03-23T09:21:37;14.80;99.90
43810;DHT22;29440;48.208;11.162;2023-03-23T09:24:04;14.90;99.90
43810;DHT22;29440;48.208;11.162;2023-03-23T09:26:30;15.00;99.90
43810;DHT22;29440;48.208;11.162;2023-03-23T09:28:57;15.00;99.90
43810;DHT22;29440;48.208;11.162;2023-03-23T09:31:24;15.20;99.90
43810;DHT22;29440;48.208;11.162;2023-03-23T09:33:53;15.30;99.90
43810;DHT22;29440;48.208;11.162;2023-03-23T09:36:21;15.40;99.90
43810;DHT22;29440;48.208;11.162;2023-03-23T09:38:47;15.50;99.90
43810;DHT22;29440;48.208;11.162;2023-03-23T09:41:39;15.70;99.90
43810;DHT22;29440;48.208;11.162;2023-03-23T09:44:18;15.90;99.90
43810;DHT22;29440;48.208;11.162;2023-03-23T09:46:58;16.00;99.90
43810;DHT22;29440;48.208;11.162;2023-03-23T09:52:16;16.20;99.90
43810;DHT22;29440;48.208;11.162;2023-03-23T09:54:51;16.30;99.90
43810;DHT22;29440;48.208;11.162;2023-03-23T09:57:30;16.40;99.90
43810;DHT22;29440;48.208;11.162;2023-03-23T10:00:04;16.50;99.90
43810;DHT22;29440;48.208;11.162;2023-03-23T10:03:13;16.60;99.90
43810;DHT22;29440;48.208;11.162;2023-03-23T10:05:45;16.70;99.90
43810;DHT22;29440;48.208;11.162;2023-03-23T10:08:32;16.80;99.90
43810;DHT22;29440;48.208;11.162;2023-03-23T10:16:30;17.00;99.90
43810;DHT22;29440;48.208;11.162;2023-03-23T10:19:08;17.00;99.90
43810;DHT22;29440;48.208;11.162;2023-03-23T10:21:39;17.00;99.90
43810;DHT22;29440;48.208;11.162;2023-03-23T10:24:10;17.00;99.90
43810;DHT22;29440;48.208;11.162;2023-03-23T10:29:30;17.10;99.90
43810;DHT22;29440;48.208;11.162;2023-03-23T10:32:08;17.10;99.90
43810;DHT22;29440;48.208;11.162;2023-03-23T10:34:49;17.10;99.90
43810;DHT22;29440;48.208;11.162;2023-03-23T10:37:34;17.30;99.90
43810;DHT22;29440;48.208;11.162;2023-03-23T10:40:05;17.20;99.90
43810;DHT22;29440;48.208;11.162;2023-03-23T10:42:37;17.20;99.50
43810;DHT22;29440;48.208;11.162;2023-03-23T10:47:54;17.20;99.60
43810;DHT22;29440;48.208;11.162;2023-03-23T10:50:30;17.20;99.40
43810;DHT22;29440;48.208;11.162;2023-03-23T10:52:58;17.20;99.00
43810;DHT22;29440;48.208;11.162;2023-03-23T10:55:38;17.30;98.60
43810;DHT22;29440;48.208;11.162;2023-03-23T10:58:06;17.30;99.40
43810;DHT22;29440;48.208;11.162;2023-03-23T11:00:32;17.40;99.30
43810;DHT22;29440;48.208;11.162;2023-03-23T11:05:31;17.40;98.40
43810;DHT22;29440;48.208;11.162;2023-03-23T11:07:59;17.50;98.80
43810;DHT22;29440;48.208;11.162;2023-03-23T11:10:38;17.60;98.70
43810;DHT22;29440;48.208;11.162;2023-03-23T11:13:04;17.70;98.70
43810;DHT22;29440;48.208;11.162;2023-03-23T11:15:38;17.70;98.30
43810;DHT22;29440;48.208;11.162;2023-03-23T11:18:17;17.80;98.00
43810;DHT22;29440;48.208;11.162;2023-03-23T11:20:45;17.90;97.60
43810;DHT22;29440;48.208;11.162;2023-03-23T11:23:21;18.00;97.50
43810;DHT22;29440;48.208;11.162;2023-03-23T11:25:58;18.20;96.90
43810;DHT22;29440;48.208;11.162;2023-03-23T11:28:33;18.30;97.30
43810;DHT22;29440;48.208;11.162;2023-03-23T11:31:02;18.40;96.50
43810;DHT22;29440;48.208;11.162;2023-03-23T11:33:36;18.60;96.40
43810;DHT22;29440;48.208;11.162;2023-03-23T11:36:06;18.60;96.00
43810;DHT22;29440;48.208;11.162;2023-03-23T11:38:33;18.70;95.30
43810;DHT22;29440;48.208;11.162;2023-03-23T11:40:59;18.70;95.10
43810;DHT22;29440;48.208;11.162;2023-03-23T11:43:25;18.80;95.90
43810;DHT22;29440;48.208;11.162;2023-03-23T11:48:59;19.10;95.40
43810;DHT22;29440;48.208;11.162;2023-03-23T11:51:52;19.20;94.40
43810;DHT22;29440;48.208;11.162;2023-03-23T11:54:30;19.30;95.40
43810;DHT22;29440;48.208;11.162;2023-03-23T11:56:56;19.30;93.50
43810;DHT22;29440;48.208;11.162;2023-03-23T11:59:30;19.50;94.50
43810;DHT22;29440;48.208;11.162;2023-03-23T12:05:43;19.50;93.70
43810;DHT22;29440;48.208;11.162;2023-03-23T12:08:54;19.30;93.70
43810;DHT22;29440;48.208;11.162;2023-03-23T12:13:54;19.20;94.30
43810;DHT22;29440;48.208;11.162;2023-03-23T12:19:38;19.30;95.10
43810;DHT22;29440;48.208;11.162;2023-03-23T12:32:43;19.20;94.50
43810;DHT22;29440;48.208;11.162;2023-03-23T12:35:49;19.10;94.30
43810;DHT22;29440;48.208;11.162;2023-03-23T12:41:16;19.00;94.60
43810;DHT22;29440;48.208;11.162;2023-03-23T12:49:33;18.70;94.70
43810;DHT22;29440;48.208;11.162;2023-03-23T12:52:16;18.60;94.20
43810;DHT22;29440;48.208;11.162;2023-03-23T12:55:16;18.60;95.10
43810;DHT22;29440;48.208;11.162;2023-03-23T13:05:50;18.50;95.30
43810;DHT22;29440;48.208;11.162;2023-03-23T13:08:44;18.50;94.90
43810;DHT22;29440;48.208;11.162;2023-03-23T13:11:41;18.50;95.50
43810;DHT22;29440;48.208;11.162;2023-03-23T13:14:29;18.50;95.50
43810;DHT22;29440;48.208;11.162;2023-03-23T13:19:51;18.60;94.90
43810;DHT22;29440;48.208;11.162;2023-03-23T13:22:28;18.60;95.10
43810;DHT22;29440;48.208;11.162;2023-03-23T13:25:02;18.70;95.00
43810;DHT22;29440;48.208;11.162;2023-03-23T13:27:30;18.70;94.00
43810;DHT22;29440;48.208;11.162;2023-03-23T13:29:57;18.70;94.50
43810;DHT22;29440;48.208;11.162;2023-03-23T13:32:37;18.70;94.70
43810;DHT22;29440;48.208;11.162;2023-03-23T13:35:11;18.70;94.80
43810;DHT22;29440;48.208;11.162;2023-03-23T13:37:42;18.70;94.40
43810;DHT22;29440;48.208;11.162;2023-03-23T13:42:52;18.60;94.70
43810;DHT22;29440;48.208;11.162;2023-03-23T13:53:29;18.50;94.50
43810;DHT22;29440;48.208;11.162;2023-03-23T13:56:16;18.40;94.00
43810;DHT22;29440;48.208;11.162;2023-03-23T13:59:06;18.30;94.00
43810;DHT22;29440;48.208;11.162;2023-03-23T14:01:37;18.20;94.00
43810;DHT22;29440;48.208;11.162;2023-03-23T14:04:13;18.20;93.60
43810;DHT22;29440;48.208;11.162;2023-03-23T14:06:40;18.20;94.20
43810;DHT22;29440;48.208;11.162;2023-03-23T14:09:14;18.10;94.20
43810;DHT22;29440;48.208;11.162;2023-03-23T14:11:48;18.10;94.90
43810;DHT22;29440;48.208;11.162;2023-03-23T14:14:20;18.10;95.20
43810;DHT22;29440;48.208;11.162;2023-03-23T14:16:49;18.00;95.60
43810;DHT22;29440;48.208;11.162;2023-03-23T14:19:19;18.10;95.60
43810;DHT22;29440;48.208;11.162;2023-03-23T14:21:54;18.00;95.20
43810;DHT22;29440;48.208;11.162;2023-03-23T14:26:52;17.90;94.90
43810;DHT22;29440;48.208;11.162;2023-03-23T14:29:20;17.80;94.60
43810;DHT22;29440;48.208;11.162;2023-03-23T14:31:53;17.70;95.10
43810;DHT22;29440;48.208;11.162;2023-03-23T14:34:21;17.70;95.50
43810;DHT22;29440;48.208;11.162;2023-03-23T14:36:47;17.70;95.20
43810;DHT22;29440;48.208;11.162;2023-03-23T14:39:31;17.60;95.40
43810;DHT22;29440;48.208;11.162;2023-03-23T14:42:03;17.50;95.80
43810;DHT22;29440;48.208;11.162;2023-03-23T14:44:40;17.50;95.90
43810;DHT22;29440;48.208;11.162;2023-03-23T14:47:16;17.50;96.30
43810;DHT22;29440;48.208;11.162;2023-03-23T14:49:45;17.50;96.40
43810;DHT22;29440;48.208;11.162;2023-03-23T14:52:14;17.50;96.70
43810;DHT22;29440;48.208;11.162;2023-03-23T14:54:40;17.50;97.00
43810;DHT22;29440;48.208;11.162;2023-03-23T14:57:17;17.50;97.10
43810;DHT22;29440;48.208;11.162;2023-03-23T14:59:46;17.50;96.90
43810;DHT22;29440;48.208;11.162;2023-03-23T15:02:27;17.50;96.00
43810;DHT22;29440;48.208;11.162;2023-03-23T15:04:58;17.40;96.20
43810;DHT22;29440;48.208;11.162;2023-03-23T15:07:29;17.40;96.30
43810;DHT22;29440;48.208;11.162;2023-03-23T15:09:55;17.40;96.50
43810;DHT22;29440;48.208;11.162;2023-03-23T15:12:26;17.40;96.30
43810;DHT22;29440;48.208;11.162;2023-03-23T15:14:58;17.40;96.20
43810;DHT22;29440;48.208;11.162;2023-03-23T15:17:26;17.30;96.10
43810;DHT22;29440;48.208;11.162;2023-03-23T15:19:54;17.30;97.20
43810;DHT22;29440;48.208;11.162;2023-03-23T15:22:26;17.30;97.40
43810;DHT22;29440;48.208;11.162;2023-03-23T15:25:12;17.20;97.80
43810;DHT22;29440;48.208;11.162;2023-03-23T15:27:43;17.20;97.80
43810;DHT22;29440;48.208;11.162;2023-03-23T15:32:41;17.10;97.80
43810;DHT22;29440;48.208;11.162;2023-03-23T15:35:21;17.00;98.10
43810;DHT22;29440;48.208;11.162;2023-03-23T15:37:59;16.90;98.40
43810;DHT22;29440;48.208;11.162;2023-03-23T15:40:26;16.90;98.40
43810;DHT22;29440;48.208;11.162;2023-03-23T15:43:07;16.80;98.20
43810;DHT22;29440;48.208;11.162;2023-03-23T15:45:33;16.70;98.10
43810;DHT22;29440;48.208;11.162;2023-03-23T15:48:12;16.60;97.80
43810;DHT22;29440;48.208;11.162;2023-03-23T15:50:40;16.50;97.90
43810;DHT22;29440;48.208;11.162;2023-03-23T15:55:51;16.40;98.60
43810;DHT22;29440;48.208;11.162;2023-03-23T15:58:18;16.30;98.90
43810;DHT22;29440;48.208;11.162;2023-03-23T16:00:44;16.30;99.20
43810;DHT22;29440;48.208;11.162;2023-03-23T16:03:15;16.20;99.40
43810;DHT22;29440;48.208;11.162;2023-03-23T16:05:45;16.20;99.80
43810;DHT22;29440;48.208;11.162;2023-03-23T16:08:11;16.10;99.90
43810;DHT22;29440;48.208;11.162;2023-03-23T16:10:37;16.10;99.90
43810;DHT22;29440;48.208;11.162;2023-03-23T16:13:03;16.10;99.90
43810;DHT22;29440;48.208;11.162;2023-03-23T16:15:32;16.00;99.90
43810;DHT22;29440;48.208;11.162;2023-03-23T16:17:57;16.00;99.90
43810;DHT22;29440;48.208;11.162;2023-03-23T16:20:24;15.90;99.90
43810;DHT22;29440;48.208;11.162;2023-03-23T16:22:50;15.90;99.90
43810;DHT22;29440;48.208;11.162;2023-03-23T16:25:17;15.90;99.90
43810;DHT22;29440;48.208;11.162;2023-03-23T16:27:43;15.90;99.90
43810;DHT22;29440;48.208;11.162;2023-03-23T16:30:19;15.80;99.90
43810;DHT22;29440;48.208;11.162;2023-03-23T16:32:45;15.80;99.90
43810;DHT22;29440;48.208;11.162;2023-03-23T16:35:12;15.80;99.90
43810;DHT22;29440;48.208;11.162;2023-03-23T16:37:38;15.70;99.90
43810;DHT22;29440;48.208;11.162;2023-03-23T16:40:07;15.70;99.90
43810;DHT22;29440;48.208;11.162;2023-03-23T16:42:35;15.70;99.90
43810;DHT22;29440;48.208;11.162;2023-03-23T16:45:01;15.70;99.90
43810;DHT22;29440;48.208;11.162;2023-03-23T16:47:27;15.70;99.90
43810;DHT22;29440;48.208;11.162;2023-03-23T16:49:56;15.60;99.90
43810;DHT22;29440;48.208;11.162;2023-03-23T16:52:22;15.70;99.90
43810;DHT22;29440;48.208;11.162;2023-03-23T16:54:47;15.60;99.90
43810;DHT22;29440;48.208;11.162;2023-03-23T16:57:13;15.50;99.90
43810;DHT22;29440;48.208;11.162;2023-03-23T16:59:39;15.50;99.90
43810;DHT22;29440;48.208;11.162;2023-03-23T17:02:04;15.50;99.90
43810;DHT22;29440;48.208;11.162;2023-03-23T17:04:31;15.40;99.90
43810;DHT22;29440;48.208;11.162;2023-03-23T17:06:57;15.40;99.90
43810;DHT22;29440;48.208;11.162;2023-03-23T17:09:26;15.30;99.90
43810;DHT22;29440;48.208;11.162;2023-03-23T17:11:53;15.30;99.90
43810;DHT22;29440;48.208;11.162;2023-03-23T17:14:20;15.30;99.90
43810;DHT22;29440;48.208;11.162;2023-03-23T17:16:45;15.30;99.90
43810;DHT22;29440;48.208;11.162;2023-03-23T17:19:12;15.20;99.90